sensor_id;sensor_type;location;lat;lon;timestamp;pressure;altitude;pressure_sealevel;temperature;humidity
36980;BME280;22891;50.562;7.272;2023-02-12T00:17:36;101853.00;;;3.87;nan
36980;BME280;22891;50.562;7.272;2023-02-12T00:20:02;101850.00;;;3.99;nan
36980;BME280;22891;50.562;7.272;2023-02-12T00:22:28;101840.00;;;4.19;nan
36980;BME280;22891;50.562;7.272;2023-02-12T00:24:54;101822.00;;;4.18;nan
36980;BME280;22891;50.562;7.272;2023-02-12T00:27:20;101818.00;;;4.22;nan
36980;BME280;22891;50.562;7.272;2023-02-12T00:29:46;101846.00;;;4.04;nan
36980;BME280;22891;50.562;7.272;2023-02-12T00:32:12;101849.00;;;3.89;nan
36980;BME280;22891;50.562;7.272;2023-02-12T00:34:41;101856.00;;;3.80;nan
36980;BME280;22891;50.562;7.272;2023-02-12T00:37:07;101856.00;;;3.80;nan
36980;BME280;22891;50.562;7.272;2023-02-12T00:39:32;101840.00;;;4.16;nan
36980;BME280;22891;50.562;7.272;2023-02-12T00:42:02;101847.00;;;4.23;nan
36980;BME280;22891;50.562;7.272;2023-02-12T00:44:28;101845.00;;;4.19;nan
36980;BME280;22891;50.562;7.272;2023-02-12T00:46:54;101820.00;;;4.04;nan
36980;BME280;22891;50.562;7.272;2023-02-12T00:49:20;101803.00;;;3.91;nan
36980;BME280;22891;50.562;7.272;2023-02-12T00:51:45;101824.00;;;3.91;nan
36980;BME280;22891;50.562;7.272;2023-02-12T00:54:11;101836.00;;;4.09;nan
36980;BME280;22891;50.562;7.272;2023-02-12T00:56:37;101833.00;;;4.26;nan
36980;BME280;22891;50.562;7.272;2023-02-12T00:59:02;101832.00;;;4.36;nan
36980;BME280;22891;50.562;7.272;2023-02-12T01:03:54;101841.00;;;4.29;nan
36980;BME280;22891;50.562;7.272;2023-02-12T01:06:20;101809.00;;;4.25;nan
36980;BME280;22891;50.562;7.272;2023-02-12T01:08:49;101855.00;;;4.14;nan
36980;BME280;22891;50.562;7.272;2023-02-12T01:11:16;101855.00;;;4.14;nan
36980;BME280;22891;50.562;7.272;2023-02-12T01:16:12;101830.00;;;4.13;nan
36980;BME280;22891;50.562;7.272;2023-02-12T01:18:38;101813.00;;;4.19;nan
36980;BME280;22891;50.562;7.272;2023-02-12T01:21:13;101810.00;;;4.12;nan
36980;BME280;22891;50.562;7.272;2023-02-12T01:23:41;101855.00;;;3.94;nan
36980;BME280;22891;50.562;7.272;2023-02-12T01:26:07;101818.00;;;3.99;nan
36980;BME280;22891;50.562;7.272;2023-02-12T01:28:36;101821.00;;;4.17;nan
36980;BME280;22891;50.562;7.272;2023-02-12T01:31:01;101843.00;;;4.02;nan
36980;BME280;22891;50.562;7.272;2023-02-12T01:33:31;101845.00;;;4.01;nan
36980;BME280;22891;50.562;7.272;2023-02-12T01:35:58;101846.00;;;4.17;nan
36980;BME280;22891;50.562;7.272;2023-02-12T01:38:24;101838.00;;;4.12;nan
36980;BME280;22891;50.562;7.272;2023-02-12T01:40:49;101808.00;;;4.25;nan
36980;BME280;22891;50.562;7.272;2023-02-12T01:43:15;101785.00;;;4.18;nan
36980;BME280;22891;50.562;7.272;2023-02-12T01:45:47;101838.00;;;4.18;nan
36980;BME280;22891;50.562;7.272;2023-02-12T01:48:16;101833.00;;;4.37;nan
36980;BME280;22891;50.562;7.272;2023-02-12T01:50:45;101836.00;;;4.38;nan
36980;BME280;22891;50.562;7.272;2023-02-12T01:53:13;101837.00;;;4.24;nan
36980;BME280;22891;50.562;7.272;2023-02-12T01:55:46;101832.00;;;4.50;nan
36980;BME280;22891;50.562;7.272;2023-02-12T01:58:13;101830.00;;;4.38;nan
36980;BME280;22891;50.562;7.272;2023-02-12T02:00:40;101842.00;;;4.25;nan
36980;BME280;22891;50.562;7.272;2023-02-12T02:03:07;101831.00;;;4.11;nan
36980;BME280;22891;50.562;7.272;2023-02-12T02:05:49;101813.00;;;4.22;nan
36980;BME280;22891;50.562;7.272;2023-02-12T02:08:18;101827.00;;;4.30;nan
36980;BME280;22891;50.562;7.272;2023-02-12T02:10:44;101846.00;;;4.35;nan
36980;BME280;22891;50.562;7.272;2023-02-12T02:13:11;101827.00;;;4.55;nan
36980;BME280;22891;50.562;7.272;2023-02-12T02:15:58;101848.00;;;4.39;nan
36980;BME280;22891;50.562;7.272;2023-02-12T02:18:49;101845.00;;;4.38;nan
36980;BME280;22891;50.562;7.272;2023-02-12T02:21:50;101852.00;;;4.51;nan
36980;BME280;22891;50.562;7.272;2023-02-12T02:26:16;101855.00;;;4.23;nan
36980;BME280;22891;50.562;7.272;2023-02-12T02:32:49;101844.00;;;4.03;nan
36980;BME280;22891;50.562;7.272;2023-02-12T02:37:13;101851.00;;;4.18;nan
36980;BME280;22891;50.562;7.272;2023-02-12T02:40:32;101849.00;;;4.40;nan
36980;BME280;22891;50.562;7.272;2023-02-12T02:43:06;101858.00;;;4.05;nan
36980;BME280;22891;50.562;7.272;2023-02-12T02:45:49;101847.00;;;4.08;nan
36980;BME280;22891;50.562;7.272;2023-02-12T02:48:23;101830.00;;;4.13;nan
36980;BME280;22891;50.562;7.272;2023-02-12T02:50:56;101850.00;;;4.10;nan
36980;BME280;22891;50.562;7.272;2023-02-12T02:53:44;101842.00;;;4.30;nan
36980;BME280;22891;50.562;7.272;2023-02-12T02:56:16;101854.00;;;4.23;nan
36980;BME280;22891;50.562;7.272;2023-02-12T02:58:52;101852.00;;;4.05;nan
36980;BME280;22891;50.562;7.272;2023-02-12T03:01:29;101846.00;;;4.10;nan
36980;BME280;22891;50.562;7.272;2023-02-12T03:04:14;101842.00;;;4.20;nan
36980;BME280;22891;50.562;7.272;2023-02-12T03:08:11;101839.00;;;4.34;nan
36980;BME280;22891;50.562;7.272;2023-02-12T03:10:41;101829.00;;;4.40;nan
36980;BME280;22891;50.562;7.272;2023-02-12T03:17:42;101835.00;;;4.35;nan
36980;BME280;22891;50.562;7.272;2023-02-12T03:20:15;101832.00;;;4.14;nan
36980;BME280;22891;50.562;7.272;2023-02-12T03:22:51;101249.00;;;3.89;nan
36980;BME280;22891;50.562;7.272;2023-02-12T03:25:56;101270.00;;;3.86;nan
36980;BME280;22891;50.562;7.272;2023-02-12T03:34:22;101688.00;;;3.83;nan
36980;BME280;22891;50.562;7.272;2023-02-12T03:37:02;101688.00;;;3.83;nan
36980;BME280;22891;50.562;7.272;2023-02-12T03:39:41;101823.00;;;4.09;nan
36980;BME280;22891;50.562;7.272;2023-02-12T03:42:34;101827.00;;;4.04;nan
36980;BME280;22891;50.562;7.272;2023-02-12T03:45:12;101824.00;;;4.10;nan
36980;BME280;22891;50.562;7.272;2023-02-12T03:48:07;101820.00;;;4.04;nan
36980;BME280;22891;50.562;7.272;2023-02-12T03:50:58;101825.00;;;4.00;nan
36980;BME280;22891;50.562;7.272;2023-02-12T03:53:28;101819.00;;;4.01;nan
36980;BME280;22891;50.562;7.272;2023-02-12T03:56:23;101819.00;;;4.13;nan
36980;BME280;22891;50.562;7.272;2023-02-12T03:58:50;101819.00;;;4.16;nan
36980;BME280;22891;50.562;7.272;2023-02-12T04:01:16;101813.00;;;4.25;nan
36980;BME280;22891;50.562;7.272;2023-02-12T04:03:42;101816.00;;;4.23;nan
36980;BME280;22891;50.562;7.272;2023-02-12T04:06:23;101816.00;;;4.33;nan
36980;BME280;22891;50.562;7.272;2023-02-12T04:08:56;101823.00;;;4.37;nan
36980;BME280;22891;50.562;7.272;2023-02-12T04:18:18;101825.00;;;4.30;nan
36980;BME280;22891;50.562;7.272;2023-02-12T04:21:07;101826.00;;;4.29;nan
36980;BME280;22891;50.562;7.272;2023-02-12T04:30:01;101835.00;;;4.38;nan
36980;BME280;22891;50.562;7.272;2023-02-12T04:32:37;101826.00;;;4.29;nan
36980;BME280;22891;50.562;7.272;2023-02-12T04:35:19;101835.00;;;4.47;nan
36980;BME280;22891;50.562;7.272;2023-02-12T04:40:34;101845.00;;;4.38;nan
36980;BME280;22891;50.562;7.272;2023-02-12T04:43:00;101866.00;;;4.13;nan
36980;BME280;22891;50.562;7.272;2023-02-12T04:45:29;101865.00;;;4.09;nan
36980;BME280;22891;50.562;7.272;2023-02-12T04:47:56;101856.00;;;4.10;nan
36980;BME280;22891;50.562;7.272;2023-02-12T04:50:22;101853.00;;;3.99;nan
36980;BME280;22891;50.562;7.272;2023-02-12T04:52:49;101799.00;;;4.10;nan
36980;BME280;22891;50.562;7.272;2023-02-12T04:55:15;101835.00;;;4.10;nan
36980;BME280;22891;50.562;7.272;2023-02-12T04:58:36;101846.00;;;4.27;nan
36980;BME280;22891;50.562;7.272;2023-02-12T05:01:02;101846.00;;;4.27;nan
36980;BME280;22891;50.562;7.272;2023-02-12T05:03:28;101841.00;;;4.35;nan
36980;BME280;22891;50.562;7.272;2023-02-12T05:05:54;101841.00;;;4.35;nan
36980;BME280;22891;50.562;7.272;2023-02-12T05:08:20;101842.00;;;4.42;nan
36980;BME280;22891;50.562;7.272;2023-02-12T05:10:46;101848.00;;;4.45;nan
36980;BME280;22891;50.562;7.272;2023-02-12T05:13:12;101822.00;;;4.36;nan
36980;BME280;22891;50.562;7.272;2023-02-12T05:15:38;101849.00;;;4.38;nan
36980;BME280;22891;50.562;7.272;2023-02-12T05:18:05;101857.00;;;4.28;nan
36980;BME280;22891;50.562;7.272;2023-02-12T05:20:30;101859.00;;;4.21;nan
36980;BME280;22891;50.562;7.272;2023-02-12T05:22:56;101860.00;;;4.09;nan
36980;BME280;22891;50.562;7.272;2023-02-12T05:25:23;101859.00;;;4.04;nan
36980;BME280;22891;50.562;7.272;2023-02-12T05:27:48;101858.00;;;4.05;nan
36980;BME280;22891;50.562;7.272;2023-02-12T05:30:15;101855.00;;;4.17;nan
36980;BME280;22891;50.562;7.272;2023-02-12T05:32:41;101849.00;;;4.37;nan
36980;BME280;22891;50.562;7.272;2023-02-12T05:35:07;101848.00;;;4.42;nan
36980;BME280;22891;50.562;7.272;2023-02-12T05:37:35;101865.00;;;4.34;nan
36980;BME280;22891;50.562;7.272;2023-02-12T08:34:59;101836.00;;;3.89;nan
36980;BME280;22891;50.562;7.272;2023-02-12T08:39:50;101936.00;;;5.56;nan
36980;BME280;22891;50.562;7.272;2023-02-12T08:42:16;101931.00;;;5.32;nan
36980;BME280;22891;50.562;7.272;2023-02-12T08:44:42;101947.00;;;5.40;nan
36980;BME280;22891;50.562;7.272;2023-02-12T08:47:07;101949.00;;;5.49;nan
36980;BME280;22891;50.562;7.272;2023-02-12T08:49:41;101941.00;;;5.75;nan
36980;BME280;22891;50.562;7.272;2023-02-12T08:52:06;101941.00;;;5.75;nan
36980;BME280;22891;50.562;7.272;2023-02-12T08:54:33;101953.00;;;5.95;nan
36980;BME280;22891;50.562;7.272;2023-02-12T08:57:00;101963.00;;;6.04;nan
36980;BME280;22891;50.562;7.272;2023-02-12T08:59:26;101966.00;;;6.06;nan
36980;BME280;22891;50.562;7.272;2023-02-12T09:01:55;101946.00;;;6.09;nan
36980;BME280;22891;50.562;7.272;2023-02-12T09:04:23;101946.00;;;6.09;nan
36980;BME280;22891;50.562;7.272;2023-02-12T09:06:50;101976.00;;;6.04;nan
36980;BME280;22891;50.562;7.272;2023-02-12T09:09:16;101972.00;;;6.03;nan
36980;BME280;22891;50.562;7.272;2023-02-12T09:11:44;101974.00;;;6.03;nan
36980;BME280;22891;50.562;7.272;2023-02-12T09:14:12;101981.00;;;5.93;nan
36980;BME280;22891;50.562;7.272;2023-02-12T09:16:39;101973.00;;;6.16;nan
36980;BME280;22891;50.562;7.272;2023-02-12T11:33:24;102005.00;;;6.83;nan
36980;BME280;22891;50.562;7.272;2023-02-12T17:23:53;102250.00;;;8.33;nan
36980;BME280;22891;50.562;7.272;2023-02-12T17:26:21;102249.00;;;8.36;nan
36980;BME280;22891;50.562;7.272;2023-02-12T17:28:46;102256.00;;;8.43;nan
36980;BME280;22891;50.562;7.272;2023-02-12T17:45:28;102264.00;;;8.17;nan
36980;BME280;22891;50.562;7.272;2023-02-12T17:47:54;102264.00;;;8.17;nan
36980;BME280;22891;50.562;7.272;2023-02-12T17:50:19;102266.00;;;8.12;nan
36980;BME280;22891;50.562;7.272;2023-02-12T17:52:45;102274.00;;;8.26;nan
36980;BME280;22891;50.562;7.272;2023-02-12T17:58:23;102302.00;;;8.36;nan
36980;BME280;22891;50.562;7.272;2023-02-12T18:00:48;102302.00;;;8.36;nan
36980;BME280;22891;50.562;7.272;2023-02-12T18:04:11;102300.00;;;8.26;nan
36980;BME280;22891;50.562;7.272;2023-02-12T18:06:37;102300.00;;;8.26;nan
36980;BME280;22891;50.562;7.272;2023-02-12T18:09:03;102276.00;;;7.99;nan
36980;BME280;22891;50.562;7.272;2023-02-12T18:11:29;102260.00;;;7.96;nan
36980;BME280;22891;50.562;7.272;2023-02-12T18:27:27;102220.00;;;8.06;nan
36980;BME280;22891;50.562;7.272;2023-02-12T18:29:53;102220.00;;;8.06;nan
36980;BME280;22891;50.562;7.272;2023-02-12T18:32:21;102258.00;;;7.88;nan
36980;BME280;22891;50.562;7.272;2023-02-12T18:34:48;102201.00;;;7.89;nan
36980;BME280;22891;50.562;7.272;2023-02-12T18:37:13;102258.00;;;7.93;nan
36980;BME280;22891;50.562;7.272;2023-02-12T18:39:39;102272.00;;;8.00;nan
36980;BME280;22891;50.562;7.272;2023-02-12T18:42:05;102262.00;;;8.00;nan
36980;BME280;22891;50.562;7.272;2023-02-12T18:56:11;102287.00;;;8.02;nan
36980;BME280;22891;50.562;7.272;2023-02-12T18:58:37;102297.00;;;8.15;nan
36980;BME280;22891;50.562;7.272;2023-02-12T19:01:14;102312.00;;;8.19;nan
36980;BME280;22891;50.562;7.272;2023-02-12T19:03:40;102308.00;;;8.23;nan
36980;BME280;22891;50.562;7.272;2023-02-12T19:11:45;102293.00;;;8.06;nan
36980;BME280;22891;50.562;7.272;2023-02-12T19:14:13;102292.00;;;8.02;nan
36980;BME280;22891;50.562;7.272;2023-02-12T19:16:39;102260.00;;;7.99;nan
36980;BME280;22891;50.562;7.272;2023-02-12T19:19:05;102268.00;;;7.96;nan
36980;BME280;22891;50.562;7.272;2023-02-12T19:21:32;102265.00;;;7.96;nan
36980;BME280;22891;50.562;7.272;2023-02-12T19:23:59;102266.00;;;7.90;nan
36980;BME280;22891;50.562;7.272;2023-02-12T19:26:26;102255.00;;;7.93;nan
36980;BME280;22891;50.562;7.272;2023-02-12T19:28:53;102255.00;;;7.90;nan
36980;BME280;22891;50.562;7.272;2023-02-12T19:31:28;102235.00;;;7.81;nan
36980;BME280;22891;50.562;7.272;2023-02-12T19:34:04;102228.00;;;7.72;nan
36980;BME280;22891;50.562;7.272;2023-02-12T19:36:33;102221.00;;;7.76;nan
36980;BME280;22891;50.562;7.272;2023-02-12T19:39:00;102202.00;;;7.72;nan
36980;BME280;22891;50.562;7.272;2023-02-12T19:41:27;102170.00;;;7.77;nan
36980;BME280;22891;50.562;7.272;2023-02-12T19:43:58;102214.00;;;7.78;nan
36980;BME280;22891;50.562;7.272;2023-02-12T19:46:26;102222.00;;;7.83;nan
36980;BME280;22891;50.562;7.272;2023-02-12T19:48:57;102222.00;;;7.89;nan
36980;BME280;22891;50.562;7.272;2023-02-12T19:51:24;102220.00;;;7.88;nan
36980;BME280;22891;50.562;7.272;2023-02-12T19:53:50;102220.00;;;7.85;nan
36980;BME280;22891;50.562;7.272;2023-02-12T19:56:17;102207.00;;;7.86;nan
36980;BME280;22891;50.562;7.272;2023-02-12T19:58:44;102200.00;;;7.88;nan
36980;BME280;22891;50.562;7.272;2023-02-12T20:01:12;102204.00;;;7.86;nan
36980;BME280;22891;50.562;7.272;2023-02-12T20:03:39;102188.00;;;7.81;nan
36980;BME280;22891;50.562;7.272;2023-02-12T20:06:07;102191.00;;;7.87;nan
36980;BME280;22891;50.562;7.272;2023-02-12T20:08:37;102198.00;;;7.88;nan
36980;BME280;22891;50.562;7.272;2023-02-12T20:11:08;102199.00;;;7.94;nan
36980;BME280;22891;50.562;7.272;2023-02-12T20:13:34;102208.00;;;7.99;nan
36980;BME280;22891;50.562;7.272;2023-02-12T20:16:04;102216.00;;;7.96;nan
36980;BME280;22891;50.562;7.272;2023-02-12T20:18:31;102207.00;;;7.94;nan
36980;BME280;22891;50.562;7.272;2023-02-12T20:20:58;102217.00;;;7.98;nan
36980;BME280;22891;50.562;7.272;2023-02-12T20:23:23;102219.00;;;7.90;nan
36980;BME280;22891;50.562;7.272;2023-02-12T20:25:50;102208.00;;;7.87;nan
36980;BME280;22891;50.562;7.272;2023-02-12T20:28:16;102198.00;;;7.93;nan
36980;BME280;22891;50.562;7.272;2023-02-12T20:30:42;102219.00;;;7.90;nan
36980;BME280;22891;50.562;7.272;2023-02-12T20:33:09;102204.00;;;7.92;nan
36980;BME280;22891;50.562;7.272;2023-02-12T20:35:35;102205.00;;;7.88;nan
36980;BME280;22891;50.562;7.272;2023-02-12T20:38:05;102200.00;;;7.82;nan
36980;BME280;22891;50.562;7.272;2023-02-12T20:40:32;102204.00;;;7.89;nan
36980;BME280;22891;50.562;7.272;2023-02-12T20:42:59;102204.00;;;7.89;nan
36980;BME280;22891;50.562;7.272;2023-02-12T20:45:25;102212.00;;;7.89;nan
36980;BME280;22891;50.562;7.272;2023-02-12T20:47:51;102213.00;;;7.86;nan
36980;BME280;22891;50.562;7.272;2023-02-12T20:50:17;102210.00;;;7.85;nan
36980;BME280;22891;50.562;7.272;2023-02-12T20:52:42;102205.00;;;7.85;nan
36980;BME280;22891;50.562;7.272;2023-02-12T20:55:08;102205.00;;;7.85;nan
36980;BME280;22891;50.562;7.272;2023-02-12T20:57:34;102207.00;;;7.86;nan
36980;BME280;22891;50.562;7.272;2023-02-12T21:00:00;102216.00;;;7.91;nan
36980;BME280;22891;50.562;7.272;2023-02-12T21:02:27;102216.00;;;7.91;nan
36980;BME280;22891;50.562;7.272;2023-02-12T21:04:52;102221.00;;;7.88;nan
36980;BME280;22891;50.562;7.272;2023-02-12T21:07:21;102213.00;;;7.88;nan
36980;BME280;22891;50.562;7.272;2023-02-12T21:09:46;102210.00;;;7.85;nan
36980;BME280;22891;50.562;7.272;2023-02-12T21:12:12;102210.00;;;7.79;nan
36980;BME280;22891;50.562;7.272;2023-02-12T21:14:40;102207.00;;;7.86;nan
36980;BME280;22891;50.562;7.272;2023-02-12T21:17:06;102213.00;;;7.86;nan
36980;BME280;22891;50.562;7.272;2023-02-12T21:19:31;102208.00;;;7.84;nan
36980;BME280;22891;50.562;7.272;2023-02-12T21:21:59;102208.00;;;7.81;nan
36980;BME280;22891;50.562;7.272;2023-02-12T21:24:25;102213.00;;;7.90;nan
36980;BME280;22891;50.562;7.272;2023-02-12T21:26:52;102214.00;;;7.94;nan
36980;BME280;22891;50.562;7.272;2023-02-12T21:29:19;102211.00;;;7.88;nan
36980;BME280;22891;50.562;7.272;2023-02-12T21:31:46;102213.00;;;7.93;nan
36980;BME280;22891;50.562;7.272;2023-02-12T21:34:17;102222.00;;;7.92;nan
36980;BME280;22891;50.562;7.272;2023-02-12T21:39:50;102220.00;;;7.91;nan
36980;BME280;22891;50.562;7.272;2023-02-12T21:44:41;102194.00;;;7.89;nan
36980;BME280;22891;50.562;7.272;2023-02-12T21:47:07;102218.00;;;7.93;nan
